createdAt,value
2023-04-19T00:01:01.793Z,4.20
2023-04-19T00:06:04.487Z,3.73
2023-04-19T00:11:06.967Z,3.77
2023-04-19T00:16:09.513Z,3.67
2023-04-19T00:21:12.097Z,4.53
2023-04-19T00:26:15.924Z,4.00
2023-04-19T00:31:23.154Z,4.87
2023-04-19T00:36:26.155Z,4.20
2023-04-19T00:41:28.659Z,4.10
2023-04-19T00:46:33.320Z,3.97
2023-04-19T00:51:36.695Z,3.20
2023-04-19T00:56:40.956Z,3.60
2023-04-19T01:01:43.448Z,4.03
2023-04-19T01:06:45.868Z,4.70
2023-04-19T01:11:48.409Z,3.57
2023-04-19T01:16:51.448Z,4.20
2023-04-19T01:21:54.006Z,3.20
2023-04-19T01:26:56.591Z,3.67
2023-04-19T01:31:59.111Z,3.20
2023-04-19T01:37:02.603Z,3.90
2023-04-19T01:42:05.129Z,4.20
2023-04-19T01:47:09.956Z,3.17
2023-04-19T01:52:12.352Z,3.67
2023-04-19T01:57:16.642Z,3.27
2023-04-19T02:02:19.239Z,4.40
2023-04-19T02:07:21.817Z,3.10
2023-04-19T02:12:25.421Z,3.63
2023-04-19T02:17:28.323Z,3.67
2023-04-19T02:22:30.941Z,3.70
2023-04-19T02:27:33.932Z,3.60
2023-04-19T02:32:36.589Z,3.40
2023-04-19T02:37:42.327Z,2.50
2023-04-19T02:42:44.936Z,3.47
2023-04-19T02:47:47.520Z,5.10
2023-04-19T02:52:50.099Z,3.37
2023-04-19T02:57:54.063Z,3.33
2023-04-19T03:02:57.237Z,3.73
2023-04-19T03:08:00.346Z,3.03
2023-04-19T03:13:03.052Z,4.00
2023-04-19T03:18:06.301Z,3.13
2023-04-19T03:23:09.993Z,2.80
2023-04-19T03:28:13.091Z,3.23
2023-04-19T03:33:33.778Z,3.13
2023-04-19T03:38:37.408Z,3.20
2023-04-19T03:43:43.307Z,4.07
2023-04-19T03:48:45.869Z,3.23
2023-04-19T03:53:48.586Z,4.20
2023-04-19T03:58:53.825Z,3.80
2023-04-19T04:03:56.899Z,3.07
2023-04-19T04:09:00.755Z,3.03
2023-04-19T04:14:04.569Z,3.30
2023-04-19T04:19:11.324Z,3.40
2023-04-19T04:24:18.002Z,3.67
2023-04-19T04:29:45.962Z,3.90
2023-04-19T04:34:49.035Z,3.40
2023-04-19T04:40:02.073Z,3.20
2023-04-19T04:45:07.642Z,3.17
2023-04-19T04:50:12.428Z,3.73
2023-04-19T04:55:15.048Z,3.87
2023-04-19T05:00:20.069Z,4.20
2023-04-19T05:05:31.722Z,3.60
2023-04-19T05:10:34.307Z,3.70
2023-04-19T05:15:36.953Z,3.40
2023-04-19T05:20:39.685Z,4.27
2023-04-19T05:25:50.031Z,4.17
2023-04-19T05:30:53.390Z,4.47
2023-04-19T05:35:58.541Z,4.00
2023-04-19T05:41:01.571Z,5.60
2023-04-19T05:46:04.533Z,5.50
2023-04-19T05:51:07.206Z,5.40
2023-04-19T05:56:32.976Z,4.47
2023-04-19T06:01:35.763Z,4.07
2023-04-19T06:06:38.340Z,4.33
2023-04-19T06:11:50.070Z,4.43
2023-04-19T06:16:53.935Z,4.10
2023-04-19T06:21:56.462Z,3.73
2023-04-19T06:26:58.902Z,4.93
2023-04-19T06:32:01.507Z,4.60
2023-04-19T06:37:04.484Z,4.70
2023-04-19T06:42:07.199Z,5.50
2023-04-19T06:47:09.633Z,4.30
2023-04-19T06:52:12.219Z,3.57
2023-04-19T06:57:14.716Z,5.03
2023-04-19T07:02:17.410Z,3.80
2023-04-19T07:07:19.926Z,4.53
2023-04-19T07:12:22.669Z,4.30
2023-04-19T07:17:25.447Z,4.70
2023-04-19T07:22:28.012Z,4.17
2023-04-19T07:27:30.480Z,4.60
2023-04-19T07:32:33.081Z,5.83
2023-04-19T07:37:35.615Z,4.33
2023-04-19T07:42:38.115Z,5.63
2023-04-19T07:47:40.834Z,5.97
2023-04-19T07:52:43.394Z,4.50
2023-04-19T07:57:48.369Z,5.13
2023-04-19T08:02:51.177Z,5.27
2023-04-19T08:07:54.200Z,5.30
2023-04-19T08:13:04.563Z,6.57
2023-04-19T08:18:08.611Z,5.00
2023-04-19T08:23:22.422Z,5.20
2023-04-19T08:28:26.875Z,4.27
2023-04-19T08:33:29.320Z,4.33
2023-04-19T08:38:31.793Z,4.37
2023-04-19T08:43:37.753Z,4.97
2023-04-19T08:48:42.580Z,5.20
2023-04-19T08:53:45.613Z,4.20
2023-04-19T09:04:05.005Z,5.07
2023-04-19T09:14:26.755Z,4.47
2023-04-19T09:19:49.280Z,5.80
2023-04-19T09:25:30.053Z,5.60
2023-04-19T09:30:31.204Z,6.00
2023-04-19T09:35:49.727Z,6.23
2023-04-19T09:40:53.266Z,6.60
2023-04-19T09:45:56.315Z,4.20
2023-04-19T09:51:05.946Z,4.40
2023-04-19T09:56:12.949Z,5.93
2023-04-19T10:01:16.764Z,5.80
2023-04-19T10:11:30.593Z,4.07
2023-04-19T10:16:33.589Z,5.60
2023-04-19T10:21:36.872Z,5.90
2023-04-19T10:27:12.103Z,5.50
2023-04-19T10:32:15.158Z,5.87
2023-04-19T10:37:17.730Z,6.30
2023-04-19T10:42:20.319Z,6.13
2023-04-19T10:47:41.799Z,6.77
2023-04-19T10:52:44.303Z,5.87
2023-04-19T10:58:06.487Z,5.87
2023-04-19T11:03:46.384Z,6.03
2023-04-19T11:08:48.986Z,5.93
2023-04-19T11:13:51.831Z,5.77
2023-04-19T11:18:55.724Z,4.97
2023-04-19T11:24:08.892Z,6.70
2023-04-19T11:29:11.798Z,5.93
2023-04-19T11:34:14.718Z,7.50
2023-04-19T11:39:17.846Z,6.60
2023-04-19T11:44:20.877Z,7.37
2023-04-19T11:49:33.874Z,7.90
2023-04-19T11:54:36.460Z,7.37
2023-04-19T11:59:39.549Z,6.27
2023-04-19T12:04:42.201Z,6.43
2023-04-19T12:09:49.250Z,6.90
2023-04-19T12:14:54.695Z,6.67
2023-04-19T12:19:57.154Z,5.10
2023-04-19T12:24:59.631Z,7.00
2023-04-19T12:30:02.190Z,8.47
2023-04-19T12:35:04.813Z,7.43
2023-04-19T12:40:08.178Z,6.57
2023-04-19T12:45:11.514Z,7.40
2023-04-19T12:50:15.424Z,7.13
2023-04-19T12:55:18.000Z,7.47
2023-04-19T13:00:20.946Z,4.70
2023-04-19T13:05:23.707Z,8.30
2023-04-19T13:10:26.497Z,8.27
2023-04-19T13:15:29.679Z,7.83
2023-04-19T13:20:32.331Z,6.97
2023-04-19T13:25:34.908Z,7.27
2023-04-19T13:30:37.322Z,8.00
2023-04-19T13:35:39.727Z,6.93
2023-04-19T13:40:42.298Z,7.20
2023-04-19T13:45:45.029Z,7.53
2023-04-19T13:50:49.756Z,10.30
2023-04-19T13:55:53.590Z,11.27
2023-04-19T14:00:56.058Z,10.00
2023-04-19T14:05:59.861Z,13.87
2023-04-19T14:11:02.421Z,9.90
2023-04-19T14:16:05.064Z,16.03
2023-04-19T14:21:07.647Z,8.10
2023-04-19T14:26:10.272Z,6.57
2023-04-19T14:31:12.765Z,7.73
2023-04-19T14:36:15.680Z,6.20
2023-04-19T14:41:18.192Z,9.33
2023-04-19T14:46:20.866Z,10.40
2023-04-19T14:51:23.383Z,13.13
2023-04-19T14:56:25.910Z,10.50
2023-04-19T15:01:28.420Z,8.67
2023-04-19T15:06:31.756Z,10.53
2023-04-19T15:11:34.496Z,16.00
2023-04-19T15:16:37.110Z,7.17
2023-04-19T15:21:39.609Z,9.37
2023-04-19T15:26:44.258Z,9.63
2023-04-19T15:31:47.045Z,10.40
2023-04-19T15:36:49.565Z,12.80
2023-04-19T15:41:52.264Z,9.10
2023-04-19T15:46:54.995Z,9.13
2023-04-19T15:51:57.795Z,9.03
2023-04-19T15:57:01.787Z,10.00
2023-04-19T16:02:04.423Z,9.57
2023-04-19T16:07:06.917Z,8.83
2023-04-19T16:12:09.452Z,7.77
2023-04-19T16:17:11.928Z,9.53
2023-04-19T16:22:14.373Z,10.37
2023-04-19T16:27:16.929Z,9.57
2023-04-19T16:32:19.576Z,8.23
2023-04-19T16:37:22.029Z,13.73
2023-04-19T16:42:24.449Z,9.00
2023-04-19T16:47:27.131Z,11.23
2023-04-19T16:52:32.978Z,11.23
2023-04-19T16:57:36.734Z,10.13
2023-04-19T17:02:39.527Z,10.07
2023-04-19T17:07:43.428Z,6.57
2023-04-19T17:12:46.012Z,11.17
2023-04-19T17:17:48.584Z,11.13
2023-04-19T17:22:51.570Z,6.70
2023-04-19T17:27:54.141Z,8.33
2023-04-19T17:32:56.501Z,9.47
2023-04-19T17:37:59.003Z,12.40
2023-04-19T17:43:01.668Z,11.23
2023-04-19T17:48:04.378Z,14.67
2023-04-19T17:53:06.899Z,12.33
2023-04-19T17:58:09.448Z,9.87
2023-04-19T18:03:12.825Z,10.87
2023-04-19T18:08:15.471Z,8.70
2023-04-19T18:13:17.945Z,9.53
2023-04-19T18:18:20.472Z,6.33
2023-04-19T18:23:22.961Z,8.70
2023-04-19T18:28:25.605Z,7.67
2023-04-19T18:33:28.275Z,9.73
2023-04-19T18:38:30.951Z,8.67
2023-04-19T18:43:33.453Z,9.53
2023-04-19T18:48:35.968Z,9.00
2023-04-19T18:53:39.569Z,6.83
2023-04-19T18:58:42.309Z,10.30
2023-04-19T19:08:50.454Z,7.73
2023-04-19T19:13:52.966Z,7.10
2023-04-19T19:18:56.025Z,7.67
2023-04-19T19:23:59.479Z,8.87
2023-04-19T19:29:01.971Z,8.40
2023-04-19T19:34:22.667Z,7.37
2023-04-19T19:39:27.082Z,8.27
2023-04-19T19:44:29.611Z,6.90
2023-04-19T19:54:34.988Z,8.20
2023-04-19T19:59:37.570Z,8.67
2023-04-19T20:04:40.471Z,7.53
2023-04-19T20:09:43.456Z,8.00
2023-04-19T20:14:46.176Z,8.40
2023-04-19T20:19:50.470Z,9.13
2023-04-19T20:24:52.940Z,7.70
2023-04-19T20:29:56.388Z,17.73
2023-04-19T20:34:59.459Z,35.70
2023-04-19T20:40:02.067Z,50.00
2023-04-19T20:45:06.094Z,27.30
2023-04-19T20:50:09.344Z,20.93
2023-04-19T20:55:11.858Z,13.30
2023-04-19T21:00:16.811Z,20.17
2023-04-19T21:05:19.491Z,21.97
2023-04-19T21:10:22.241Z,13.70
2023-04-19T21:15:24.753Z,10.00
2023-04-19T21:20:27.435Z,9.87
2023-04-19T21:25:29.979Z,11.83
2023-04-19T21:30:32.745Z,20.17
2023-04-19T21:35:35.269Z,8.90
2023-04-19T21:40:37.722Z,13.63
2023-04-19T21:45:40.394Z,20.30
2023-04-19T21:50:42.871Z,16.37
2023-04-19T21:55:48.801Z,11.23
2023-04-19T22:00:53.529Z,13.37
2023-04-19T22:05:56.700Z,12.80
2023-04-19T22:11:00.393Z,14.60
2023-04-19T22:16:02.965Z,15.30
2023-04-19T22:21:06.462Z,16.40
2023-04-19T22:26:08.961Z,14.47
2023-04-19T22:31:11.451Z,12.87
2023-04-19T22:36:13.935Z,18.27
2023-04-19T22:41:16.479Z,17.67
2023-04-19T22:46:18.987Z,19.77
2023-04-19T22:51:22.519Z,20.10
2023-04-19T22:56:24.884Z,18.90
2023-04-19T23:01:27.440Z,19.37
2023-04-19T23:06:30.346Z,15.53
2023-04-19T23:11:32.780Z,19.77
2023-04-19T23:16:35.427Z,13.83
2023-04-19T23:21:38.120Z,15.10
2023-04-19T23:26:40.612Z,19.07
2023-04-19T23:31:43.080Z,18.30
2023-04-19T23:36:45.678Z,19.27
2023-04-19T23:41:48.194Z,19.90
2023-04-19T23:46:50.756Z,20.10
2023-04-19T23:51:53.280Z,18.97
2023-04-19T23:56:57.714Z,14.27
